sensor_id;sensor_type;location;lat;lon;timestamp;temperature;humidity
18898;DHT22;9581;49.484;8.556;2022-07-29T00:01:44;23.00;82.90
18898;DHT22;9581;49.484;8.556;2022-07-29T00:04:11;23.00;83.80
18898;DHT22;9581;49.484;8.556;2022-07-29T00:06:38;23.10;84.10
18898;DHT22;9581;49.484;8.556;2022-07-29T00:09:05;23.00;84.50
18898;DHT22;9581;49.484;8.556;2022-07-29T00:11:32;23.00;85.60
18898;DHT22;9581;49.484;8.556;2022-07-29T00:14:00;23.00;87.10
18898;DHT22;9581;49.484;8.556;2022-07-29T00:16:26;23.10;86.40
18898;DHT22;9581;49.484;8.556;2022-07-29T00:18:55;23.00;87.60
18898;DHT22;9581;49.484;8.556;2022-07-29T00:21:22;22.50;87.70
18898;DHT22;9581;49.484;8.556;2022-07-29T00:23:49;22.20;89.70
18898;DHT22;9581;49.484;8.556;2022-07-29T00:26:15;21.90;90.50
18898;DHT22;9581;49.484;8.556;2022-07-29T00:28:42;21.80;91.00
18898;DHT22;9581;49.484;8.556;2022-07-29T00:31:09;21.70;91.20
18898;DHT22;9581;49.484;8.556;2022-07-29T00:33:36;21.40;91.50
18898;DHT22;9581;49.484;8.556;2022-07-29T00:36:05;21.60;91.80
18898;DHT22;9581;49.484;8.556;2022-07-29T00:38:31;21.60;92.10
18898;DHT22;9581;49.484;8.556;2022-07-29T00:40:57;21.50;92.60
18898;DHT22;9581;49.484;8.556;2022-07-29T00:43:24;21.20;92.70
18898;DHT22;9581;49.484;8.556;2022-07-29T00:45:51;21.00;92.50
18898;DHT22;9581;49.484;8.556;2022-07-29T00:48:18;21.20;92.40
18898;DHT22;9581;49.484;8.556;2022-07-29T00:50:45;21.40;92.50
18898;DHT22;9581;49.484;8.556;2022-07-29T00:53:15;21.30;92.70
18898;DHT22;9581;49.484;8.556;2022-07-29T00:55:41;21.20;93.20
18898;DHT22;9581;49.484;8.556;2022-07-29T00:58:08;21.20;93.70
18898;DHT22;9581;49.484;8.556;2022-07-29T01:00:37;21.40;93.50
18898;DHT22;9581;49.484;8.556;2022-07-29T01:03:06;21.20;94.30
18898;DHT22;9581;49.484;8.556;2022-07-29T01:05:33;20.80;95.30
18898;DHT22;9581;49.484;8.556;2022-07-29T01:08:00;20.90;95.20
18898;DHT22;9581;49.484;8.556;2022-07-29T01:10:30;20.90;95.50
18898;DHT22;9581;49.484;8.556;2022-07-29T01:12:58;20.80;96.00
18898;DHT22;9581;49.484;8.556;2022-07-29T01:15:25;20.60;97.40
18898;DHT22;9581;49.484;8.556;2022-07-29T01:17:59;20.80;97.30
18898;DHT22;9581;49.484;8.556;2022-07-29T01:20:34;20.70;97.30
18898;DHT22;9581;49.484;8.556;2022-07-29T01:23:15;20.80;96.40
18898;DHT22;9581;49.484;8.556;2022-07-29T01:25:58;20.70;95.70
18898;DHT22;9581;49.484;8.556;2022-07-29T01:31:33;20.60;95.40
18898;DHT22;9581;49.484;8.556;2022-07-29T01:34:03;20.50;95.70
18898;DHT22;9581;49.484;8.556;2022-07-29T01:36:34;20.90;95.40
18898;DHT22;9581;49.484;8.556;2022-07-29T01:39:07;20.60;95.80
18898;DHT22;9581;49.484;8.556;2022-07-29T01:41:38;20.50;98.10
18898;DHT22;9581;49.484;8.556;2022-07-29T01:44:13;20.50;98.60
18898;DHT22;9581;49.484;8.556;2022-07-29T01:46:46;20.50;96.10
18898;DHT22;9581;49.484;8.556;2022-07-29T01:49:17;20.30;94.70
18898;DHT22;9581;49.484;8.556;2022-07-29T01:51:47;20.30;93.80
18898;DHT22;9581;49.484;8.556;2022-07-29T01:54:20;20.30;93.50
18898;DHT22;9581;49.484;8.556;2022-07-29T01:56:51;20.20;93.40
18898;DHT22;9581;49.484;8.556;2022-07-29T01:59:20;20.40;92.80
18898;DHT22;9581;49.484;8.556;2022-07-29T02:01:50;20.40;92.20
18898;DHT22;9581;49.484;8.556;2022-07-29T02:04:19;20.10;93.00
18898;DHT22;9581;49.484;8.556;2022-07-29T02:06:48;19.90;92.90
18898;DHT22;9581;49.484;8.556;2022-07-29T02:09:16;19.80;93.10
18898;DHT22;9581;49.484;8.556;2022-07-29T02:11:48;19.70;93.50
18898;DHT22;9581;49.484;8.556;2022-07-29T02:14:20;20.00;93.40
18898;DHT22;9581;49.484;8.556;2022-07-29T02:16:50;19.80;93.60
18898;DHT22;9581;49.484;8.556;2022-07-29T02:19:19;20.10;93.10
18898;DHT22;9581;49.484;8.556;2022-07-29T02:21:48;19.60;93.70
18898;DHT22;9581;49.484;8.556;2022-07-29T02:24:17;19.70;94.00
18898;DHT22;9581;49.484;8.556;2022-07-29T02:26:45;19.80;94.00
18898;DHT22;9581;49.484;8.556;2022-07-29T02:29:15;19.70;93.80
18898;DHT22;9581;49.484;8.556;2022-07-29T02:31:44;19.70;93.40
18898;DHT22;9581;49.484;8.556;2022-07-29T02:34:13;19.90;93.60
18898;DHT22;9581;49.484;8.556;2022-07-29T02:36:41;19.50;93.70
18898;DHT22;9581;49.484;8.556;2022-07-29T02:39:11;19.40;93.70
18898;DHT22;9581;49.484;8.556;2022-07-29T02:41:42;19.50;93.50
18898;DHT22;9581;49.484;8.556;2022-07-29T02:44:12;19.50;93.90
18898;DHT22;9581;49.484;8.556;2022-07-29T02:46:47;19.50;94.10
18898;DHT22;9581;49.484;8.556;2022-07-29T02:49:21;19.50;93.60
18898;DHT22;9581;49.484;8.556;2022-07-29T02:51:53;19.60;93.40
18898;DHT22;9581;49.484;8.556;2022-07-29T02:54:24;19.30;93.80
18898;DHT22;9581;49.484;8.556;2022-07-29T02:56:54;19.10;94.10
18898;DHT22;9581;49.484;8.556;2022-07-29T02:59:25;19.30;94.20
18898;DHT22;9581;49.484;8.556;2022-07-29T03:01:55;19.10;94.50
18898;DHT22;9581;49.484;8.556;2022-07-29T03:04:26;19.10;94.30
18898;DHT22;9581;49.484;8.556;2022-07-29T03:06:56;18.90;95.10
18898;DHT22;9581;49.484;8.556;2022-07-29T03:09:25;18.90;94.90
18898;DHT22;9581;49.484;8.556;2022-07-29T03:11:54;19.00;94.70
18898;DHT22;9581;49.484;8.556;2022-07-29T03:14:21;18.90;94.80
18898;DHT22;9581;49.484;8.556;2022-07-29T03:16:50;18.90;95.20
18898;DHT22;9581;49.484;8.556;2022-07-29T03:19:19;18.80;95.20
18898;DHT22;9581;49.484;8.556;2022-07-29T03:21:47;18.80;95.50
18898;DHT22;9581;49.484;8.556;2022-07-29T03:24:28;18.80;95.50
18898;DHT22;9581;49.484;8.556;2022-07-29T03:26:55;18.80;95.40
18898;DHT22;9581;49.484;8.556;2022-07-29T03:29:23;18.70;95.50
18898;DHT22;9581;49.484;8.556;2022-07-29T03:31:50;18.70;96.00
18898;DHT22;9581;49.484;8.556;2022-07-29T03:34:18;19.00;95.60
18898;DHT22;9581;49.484;8.556;2022-07-29T03:36:45;18.60;96.40
18898;DHT22;9581;49.484;8.556;2022-07-29T03:39:14;18.50;96.40
18898;DHT22;9581;49.484;8.556;2022-07-29T03:41:44;18.50;96.70
18898;DHT22;9581;49.484;8.556;2022-07-29T03:44:13;18.50;96.50
18898;DHT22;9581;49.484;8.556;2022-07-29T03:46:42;18.50;97.00
18898;DHT22;9581;49.484;8.556;2022-07-29T03:49:11;18.50;97.10
18898;DHT22;9581;49.484;8.556;2022-07-29T03:51:40;18.60;97.00
18898;DHT22;9581;49.484;8.556;2022-07-29T03:54:08;18.60;97.30
18898;DHT22;9581;49.484;8.556;2022-07-29T03:56:38;18.80;97.20
18898;DHT22;9581;49.484;8.556;2022-07-29T03:59:06;18.80;97.00
18898;DHT22;9581;49.484;8.556;2022-07-29T04:01:34;18.90;97.10
18898;DHT22;9581;49.484;8.556;2022-07-29T04:04:02;18.90;97.30
18898;DHT22;9581;49.484;8.556;2022-07-29T04:06:37;18.50;97.90
18898;DHT22;9581;49.484;8.556;2022-07-29T04:09:06;18.30;98.70
18898;DHT22;9581;49.484;8.556;2022-07-29T04:11:33;18.40;98.80
18898;DHT22;9581;49.484;8.556;2022-07-29T04:14:00;18.50;98.90
18898;DHT22;9581;49.484;8.556;2022-07-29T04:16:27;18.50;98.90
18898;DHT22;9581;49.484;8.556;2022-07-29T04:18:53;18.70;98.70
18898;DHT22;9581;49.484;8.556;2022-07-29T04:21:20;18.70;99.00
18898;DHT22;9581;49.484;8.556;2022-07-29T04:23:47;19.20;98.70
18898;DHT22;9581;49.484;8.556;2022-07-29T04:26:16;18.60;99.10
18898;DHT22;9581;49.484;8.556;2022-07-29T04:28:44;18.50;99.60
18898;DHT22;9581;49.484;8.556;2022-07-29T04:31:11;18.60;99.70
18898;DHT22;9581;49.484;8.556;2022-07-29T04:33:39;18.60;99.90
18898;DHT22;9581;49.484;8.556;2022-07-29T04:36:06;18.90;99.90
18898;DHT22;9581;49.484;8.556;2022-07-29T04:38:32;18.80;99.90
18898;DHT22;9581;49.484;8.556;2022-07-29T04:40:59;18.60;99.90
18898;DHT22;9581;49.484;8.556;2022-07-29T04:43:27;18.60;99.90
18898;DHT22;9581;49.484;8.556;2022-07-29T04:45:54;18.60;99.90
18898;DHT22;9581;49.484;8.556;2022-07-29T04:48:21;19.00;99.90
18898;DHT22;9581;49.484;8.556;2022-07-29T04:50:48;19.10;99.90
18898;DHT22;9581;49.484;8.556;2022-07-29T04:53:14;18.80;99.90
18898;DHT22;9581;49.484;8.556;2022-07-29T04:55:41;19.30;99.90
18898;DHT22;9581;49.484;8.556;2022-07-29T04:58:08;19.30;99.90
18898;DHT22;9581;49.484;8.556;2022-07-29T05:00:36;19.40;99.90
18898;DHT22;9581;49.484;8.556;2022-07-29T05:03:03;19.20;99.90
18898;DHT22;9581;49.484;8.556;2022-07-29T05:05:30;19.50;99.90
18898;DHT22;9581;49.484;8.556;2022-07-29T05:07:57;19.50;99.80
18898;DHT22;9581;49.484;8.556;2022-07-29T05:10:24;19.60;99.80
18898;DHT22;9581;49.484;8.556;2022-07-29T05:12:51;19.60;99.90
18898;DHT22;9581;49.484;8.556;2022-07-29T05:15:18;19.70;99.90
18898;DHT22;9581;49.484;8.556;2022-07-29T05:17:46;19.60;99.90
18898;DHT22;9581;49.484;8.556;2022-07-29T05:20:13;19.90;99.90
18898;DHT22;9581;49.484;8.556;2022-07-29T05:22:40;19.90;99.90
18898;DHT22;9581;49.484;8.556;2022-07-29T05:25:07;19.80;99.90
18898;DHT22;9581;49.484;8.556;2022-07-29T05:27:35;19.80;99.90
18898;DHT22;9581;49.484;8.556;2022-07-29T05:30:02;19.70;99.90
18898;DHT22;9581;49.484;8.556;2022-07-29T05:32:29;19.80;99.90
18898;DHT22;9581;49.484;8.556;2022-07-29T05:34:57;19.90;99.90
18898;DHT22;9581;49.484;8.556;2022-07-29T05:37:24;20.20;99.90
18898;DHT22;9581;49.484;8.556;2022-07-29T05:39:51;20.20;99.90
18898;DHT22;9581;49.484;8.556;2022-07-29T05:42:18;20.30;99.90
18898;DHT22;9581;49.484;8.556;2022-07-29T05:44:45;20.50;99.90
18898;DHT22;9581;49.484;8.556;2022-07-29T05:47:13;20.80;99.90
18898;DHT22;9581;49.484;8.556;2022-07-29T05:49:40;20.80;99.90
18898;DHT22;9581;49.484;8.556;2022-07-29T05:52:08;21.00;99.90
18898;DHT22;9581;49.484;8.556;2022-07-29T05:54:35;21.00;99.50
18898;DHT22;9581;49.484;8.556;2022-07-29T05:57:02;21.00;99.90
18898;DHT22;9581;49.484;8.556;2022-07-29T05:59:29;21.10;99.80
18898;DHT22;9581;49.484;8.556;2022-07-29T06:01:56;21.10;99.80
18898;DHT22;9581;49.484;8.556;2022-07-29T06:04:23;21.30;99.70
18898;DHT22;9581;49.484;8.556;2022-07-29T06:06:50;21.40;99.50
18898;DHT22;9581;49.484;8.556;2022-07-29T06:09:18;21.60;99.90
18898;DHT22;9581;49.484;8.556;2022-07-29T06:11:45;21.60;99.00
18898;DHT22;9581;49.484;8.556;2022-07-29T06:14:11;21.60;98.90
18898;DHT22;9581;49.484;8.556;2022-07-29T06:16:38;21.80;98.50
18898;DHT22;9581;49.484;8.556;2022-07-29T06:19:05;21.90;99.20
18898;DHT22;9581;49.484;8.556;2022-07-29T06:21:32;22.10;97.60
18898;DHT22;9581;49.484;8.556;2022-07-29T06:23:59;22.30;97.50
18898;DHT22;9581;49.484;8.556;2022-07-29T06:26:27;22.40;97.70
18898;DHT22;9581;49.484;8.556;2022-07-29T06:28:54;22.40;97.90
18898;DHT22;9581;49.484;8.556;2022-07-29T06:31:20;22.60;97.30
18898;DHT22;9581;49.484;8.556;2022-07-29T06:33:47;22.50;97.20
18898;DHT22;9581;49.484;8.556;2022-07-29T06:36:14;22.50;97.50
18898;DHT22;9581;49.484;8.556;2022-07-29T06:38:41;22.60;98.20
18898;DHT22;9581;49.484;8.556;2022-07-29T06:41:08;22.90;98.20
18898;DHT22;9581;49.484;8.556;2022-07-29T06:43:39;23.00;97.70
18898;DHT22;9581;49.484;8.556;2022-07-29T06:46:08;23.00;97.20
18898;DHT22;9581;49.484;8.556;2022-07-29T06:48:36;23.30;97.60
18898;DHT22;9581;49.484;8.556;2022-07-29T06:51:04;23.40;96.80
18898;DHT22;9581;49.484;8.556;2022-07-29T06:53:32;23.30;96.20
18898;DHT22;9581;49.484;8.556;2022-07-29T06:56:00;23.50;97.00
18898;DHT22;9581;49.484;8.556;2022-07-29T06:58:28;23.50;96.70
18898;DHT22;9581;49.484;8.556;2022-07-29T07:00:56;23.60;96.10
18898;DHT22;9581;49.484;8.556;2022-07-29T07:03:24;23.60;95.40
18898;DHT22;9581;49.484;8.556;2022-07-29T07:05:52;23.70;96.00
18898;DHT22;9581;49.484;8.556;2022-07-29T07:08:19;23.70;96.50
18898;DHT22;9581;49.484;8.556;2022-07-29T07:10:47;23.60;95.90
18898;DHT22;9581;49.484;8.556;2022-07-29T07:13:14;23.50;96.70
18898;DHT22;9581;49.484;8.556;2022-07-29T07:15:43;23.60;96.10
18898;DHT22;9581;49.484;8.556;2022-07-29T07:18:12;23.60;96.40
18898;DHT22;9581;49.484;8.556;2022-07-29T07:20:39;23.80;96.70
18898;DHT22;9581;49.484;8.556;2022-07-29T07:23:05;24.00;96.00
18898;DHT22;9581;49.484;8.556;2022-07-29T07:25:32;23.90;96.00
18898;DHT22;9581;49.484;8.556;2022-07-29T07:27:59;23.90;96.30
18898;DHT22;9581;49.484;8.556;2022-07-29T07:30:26;23.90;95.80
18898;DHT22;9581;49.484;8.556;2022-07-29T07:32:54;24.20;95.50
18898;DHT22;9581;49.484;8.556;2022-07-29T07:35:22;24.20;95.70
18898;DHT22;9581;49.484;8.556;2022-07-29T07:37:49;24.60;96.20
18898;DHT22;9581;49.484;8.556;2022-07-29T07:40:16;25.20;94.60
18898;DHT22;9581;49.484;8.556;2022-07-29T07:42:43;25.70;94.50
18898;DHT22;9581;49.484;8.556;2022-07-29T07:45:10;25.80;93.70
18898;DHT22;9581;49.484;8.556;2022-07-29T07:47:38;24.90;94.10
18898;DHT22;9581;49.484;8.556;2022-07-29T07:50:07;24.50;95.00
18898;DHT22;9581;49.484;8.556;2022-07-29T07:52:46;24.20;95.00
18898;DHT22;9581;49.484;8.556;2022-07-29T07:55:13;24.10;95.80
18898;DHT22;9581;49.484;8.556;2022-07-29T07:57:40;24.20;95.50
18898;DHT22;9581;49.484;8.556;2022-07-29T08:00:07;24.30;95.00
18898;DHT22;9581;49.484;8.556;2022-07-29T08:02:35;25.20;95.50
18898;DHT22;9581;49.484;8.556;2022-07-29T08:05:01;25.00;94.00
18898;DHT22;9581;49.484;8.556;2022-07-29T08:07:28;24.70;94.60
18898;DHT22;9581;49.484;8.556;2022-07-29T08:09:57;24.50;94.80
18898;DHT22;9581;49.484;8.556;2022-07-29T08:12:23;24.70;95.00
18898;DHT22;9581;49.484;8.556;2022-07-29T08:14:50;25.00;93.90
18898;DHT22;9581;49.484;8.556;2022-07-29T08:17:17;24.90;94.20
18898;DHT22;9581;49.484;8.556;2022-07-29T08:19:44;24.90;95.30
18898;DHT22;9581;49.484;8.556;2022-07-29T08:22:11;25.00;94.40
18898;DHT22;9581;49.484;8.556;2022-07-29T08:24:38;25.00;94.40
18898;DHT22;9581;49.484;8.556;2022-07-29T08:27:19;25.30;94.80
18898;DHT22;9581;49.484;8.556;2022-07-29T08:29:46;26.10;93.90
18898;DHT22;9581;49.484;8.556;2022-07-29T08:32:13;27.10;92.10
18898;DHT22;9581;49.484;8.556;2022-07-29T08:34:40;29.80;88.20
18898;DHT22;9581;49.484;8.556;2022-07-29T08:37:07;28.20;90.00
18898;DHT22;9581;49.484;8.556;2022-07-29T08:39:34;27.10;90.80
18898;DHT22;9581;49.484;8.556;2022-07-29T08:42:01;26.70;91.30
18898;DHT22;9581;49.484;8.556;2022-07-29T08:44:29;26.60;91.60
18898;DHT22;9581;49.484;8.556;2022-07-29T08:46:57;26.40;91.90
18898;DHT22;9581;49.484;8.556;2022-07-29T08:49:24;26.60;91.50
18898;DHT22;9581;49.484;8.556;2022-07-29T08:51:51;26.80;91.30
18898;DHT22;9581;49.484;8.556;2022-07-29T08:54:20;26.40;92.60
18898;DHT22;9581;49.484;8.556;2022-07-29T08:56:49;26.30;92.30
18898;DHT22;9581;49.484;8.556;2022-07-29T08:59:19;26.30;92.40
18898;DHT22;9581;49.484;8.556;2022-07-29T09:01:48;26.60;92.30
18898;DHT22;9581;49.484;8.556;2022-07-29T09:04:18;27.00;92.10
18898;DHT22;9581;49.484;8.556;2022-07-29T09:06:47;27.30;92.80
18898;DHT22;9581;49.484;8.556;2022-07-29T09:09:15;27.00;90.80
18898;DHT22;9581;49.484;8.556;2022-07-29T09:11:43;26.60;91.70
18898;DHT22;9581;49.484;8.556;2022-07-29T09:14:11;26.60;91.80
18898;DHT22;9581;49.484;8.556;2022-07-29T09:16:48;26.80;91.40
18898;DHT22;9581;49.484;8.556;2022-07-29T09:19:23;26.80;92.90
18898;DHT22;9581;49.484;8.556;2022-07-29T09:21:51;27.10;91.50
18898;DHT22;9581;49.484;8.556;2022-07-29T09:24:25;27.30;91.50
18898;DHT22;9581;49.484;8.556;2022-07-29T09:26:52;27.30;90.90
18898;DHT22;9581;49.484;8.556;2022-07-29T09:29:21;27.40;91.50
18898;DHT22;9581;49.484;8.556;2022-07-29T09:31:52;27.30;90.90
18898;DHT22;9581;49.484;8.556;2022-07-29T09:34:24;27.10;92.50
18898;DHT22;9581;49.484;8.556;2022-07-29T09:36:53;27.20;91.90
18898;DHT22;9581;49.484;8.556;2022-07-29T09:39:30;27.80;91.70
18898;DHT22;9581;49.484;8.556;2022-07-29T09:42:00;28.20;91.60
18898;DHT22;9581;49.484;8.556;2022-07-29T09:44:27;28.30;90.60
18898;DHT22;9581;49.484;8.556;2022-07-29T09:47:08;27.90;90.60
18898;DHT22;9581;49.484;8.556;2022-07-29T09:49:36;28.10;90.80
18898;DHT22;9581;49.484;8.556;2022-07-29T09:52:16;27.80;91.50
18898;DHT22;9581;49.484;8.556;2022-07-29T09:54:42;27.70;90.70
18898;DHT22;9581;49.484;8.556;2022-07-29T09:57:22;28.00;90.00
18898;DHT22;9581;49.484;8.556;2022-07-29T09:59:56;27.70;90.40
18898;DHT22;9581;49.484;8.556;2022-07-29T10:02:28;27.60;90.40
18898;DHT22;9581;49.484;8.556;2022-07-29T10:04:55;27.80;90.90
18898;DHT22;9581;49.484;8.556;2022-07-29T10:07:22;27.90;90.10
18898;DHT22;9581;49.484;8.556;2022-07-29T10:09:53;28.40;90.20
18898;DHT22;9581;49.484;8.556;2022-07-29T10:12:20;28.20;90.20
18898;DHT22;9581;49.484;8.556;2022-07-29T10:14:47;28.50;87.70
18898;DHT22;9581;49.484;8.556;2022-07-29T10:17:17;28.30;87.80
18898;DHT22;9581;49.484;8.556;2022-07-29T10:19:46;28.50;88.40
18898;DHT22;9581;49.484;8.556;2022-07-29T10:22:14;28.60;89.60
18898;DHT22;9581;49.484;8.556;2022-07-29T10:24:41;28.50;89.60
18898;DHT22;9581;49.484;8.556;2022-07-29T10:27:08;28.40;86.30
18898;DHT22;9581;49.484;8.556;2022-07-29T10:29:35;28.60;86.60
18898;DHT22;9581;49.484;8.556;2022-07-29T10:35:09;29.00;87.60
18898;DHT22;9581;49.484;8.556;2022-07-29T10:37:52;28.90;86.50
18898;DHT22;9581;49.484;8.556;2022-07-29T10:40:27;29.00;86.70
18898;DHT22;9581;49.484;8.556;2022-07-29T10:43:18;28.80;85.40
18898;DHT22;9581;49.484;8.556;2022-07-29T10:45:47;29.00;84.40
18898;DHT22;9581;49.484;8.556;2022-07-29T10:48:14;29.00;84.80
18898;DHT22;9581;49.484;8.556;2022-07-29T10:51:00;29.10;82.90
18898;DHT22;9581;49.484;8.556;2022-07-29T10:53:46;29.10;85.60
18898;DHT22;9581;49.484;8.556;2022-07-29T10:56:27;29.10;85.00
18898;DHT22;9581;49.484;8.556;2022-07-29T10:59:22;28.80;84.50
18898;DHT22;9581;49.484;8.556;2022-07-29T11:01:50;28.90;83.60
18898;DHT22;9581;49.484;8.556;2022-07-29T11:07:26;28.40;85.00
18898;DHT22;9581;49.484;8.556;2022-07-29T11:10:22;28.70;85.40
18898;DHT22;9581;49.484;8.556;2022-07-29T11:12:50;29.10;84.30
18898;DHT22;9581;49.484;8.556;2022-07-29T11:15:19;29.50;84.80
18898;DHT22;9581;49.484;8.556;2022-07-29T11:18:05;29.60;81.50
18898;DHT22;9581;49.484;8.556;2022-07-29T11:20:35;29.60;83.50
18898;DHT22;9581;49.484;8.556;2022-07-29T11:23:18;30.00;84.50
18898;DHT22;9581;49.484;8.556;2022-07-29T11:25:45;30.40;82.80
18898;DHT22;9581;49.484;8.556;2022-07-29T11:28:16;30.60;80.80
18898;DHT22;9581;49.484;8.556;2022-07-29T11:30:49;30.70;79.30
18898;DHT22;9581;49.484;8.556;2022-07-29T11:33:30;30.30;78.80
18898;DHT22;9581;49.484;8.556;2022-07-29T11:36:10;30.00;79.90
18898;DHT22;9581;49.484;8.556;2022-07-29T11:38:39;30.00;79.30
18898;DHT22;9581;49.484;8.556;2022-07-29T11:41:26;29.60;82.60
18898;DHT22;9581;49.484;8.556;2022-07-29T11:43:56;29.70;81.60
18898;DHT22;9581;49.484;8.556;2022-07-29T11:46:43;29.50;82.70
18898;DHT22;9581;49.484;8.556;2022-07-29T11:49:11;29.80;81.20
18898;DHT22;9581;49.484;8.556;2022-07-29T11:51:38;29.70;80.00
18898;DHT22;9581;49.484;8.556;2022-07-29T11:54:09;29.90;80.70
18898;DHT22;9581;49.484;8.556;2022-07-29T11:56:39;30.10;80.00
18898;DHT22;9581;49.484;8.556;2022-07-29T11:59:10;30.40;81.00
18898;DHT22;9581;49.484;8.556;2022-07-29T12:01:37;30.60;79.70
18898;DHT22;9581;49.484;8.556;2022-07-29T12:04:17;30.10;79.50
18898;DHT22;9581;49.484;8.556;2022-07-29T12:06:49;30.50;81.40
18898;DHT22;9581;49.484;8.556;2022-07-29T12:09:18;30.70;81.20
18898;DHT22;9581;49.484;8.556;2022-07-29T12:11:46;30.70;78.30
18898;DHT22;9581;49.484;8.556;2022-07-29T12:14:26;30.70;79.30
18898;DHT22;9581;49.484;8.556;2022-07-29T12:16:53;30.70;81.00
18898;DHT22;9581;49.484;8.556;2022-07-29T12:19:20;31.20;77.40
18898;DHT22;9581;49.484;8.556;2022-07-29T12:21:49;31.50;77.10
18898;DHT22;9581;49.484;8.556;2022-07-29T12:24:18;31.40;75.30
18898;DHT22;9581;49.484;8.556;2022-07-29T12:26:53;30.90;75.60
18898;DHT22;9581;49.484;8.556;2022-07-29T12:29:20;31.30;75.00
18898;DHT22;9581;49.484;8.556;2022-07-29T12:31:51;31.40;74.30
18898;DHT22;9581;49.484;8.556;2022-07-29T12:34:20;31.20;75.90
18898;DHT22;9581;49.484;8.556;2022-07-29T12:36:49;31.30;76.30
18898;DHT22;9581;49.484;8.556;2022-07-29T12:39:17;31.10;76.50
18898;DHT22;9581;49.484;8.556;2022-07-29T12:41:45;31.10;74.60
18898;DHT22;9581;49.484;8.556;2022-07-29T12:44:12;30.90;75.80
18898;DHT22;9581;49.484;8.556;2022-07-29T12:46:38;30.70;77.40
18898;DHT22;9581;49.484;8.556;2022-07-29T12:49:05;31.00;74.40
18898;DHT22;9581;49.484;8.556;2022-07-29T12:51:34;31.20;74.10
18898;DHT22;9581;49.484;8.556;2022-07-29T12:54:03;31.50;72.30
18898;DHT22;9581;49.484;8.556;2022-07-29T12:56:32;31.40;71.20
18898;DHT22;9581;49.484;8.556;2022-07-29T12:58:59;31.40;72.60
18898;DHT22;9581;49.484;8.556;2022-07-29T13:01:26;31.60;72.70
18898;DHT22;9581;49.484;8.556;2022-07-29T13:03:55;31.80;72.20
18898;DHT22;9581;49.484;8.556;2022-07-29T13:06:35;32.00;71.10
18898;DHT22;9581;49.484;8.556;2022-07-29T13:09:08;31.40;72.80
18898;DHT22;9581;49.484;8.556;2022-07-29T13:11:38;31.00;71.10
18898;DHT22;9581;49.484;8.556;2022-07-29T13:14:06;30.70;71.50
18898;DHT22;9581;49.484;8.556;2022-07-29T13:16:34;30.60;71.60
18898;DHT22;9581;49.484;8.556;2022-07-29T13:19:09;30.40;72.70
18898;DHT22;9581;49.484;8.556;2022-07-29T13:21:37;30.30;73.60
18898;DHT22;9581;49.484;8.556;2022-07-29T13:24:05;30.60;74.30
18898;DHT22;9581;49.484;8.556;2022-07-29T13:26:32;31.20;71.80
18898;DHT22;9581;49.484;8.556;2022-07-29T13:29:01;31.20;69.00
18898;DHT22;9581;49.484;8.556;2022-07-29T13:31:27;30.80;69.40
18898;DHT22;9581;49.484;8.556;2022-07-29T13:33:54;30.50;69.60
18898;DHT22;9581;49.484;8.556;2022-07-29T13:36:22;30.40;70.10
18898;DHT22;9581;49.484;8.556;2022-07-29T13:38:48;30.50;70.40
18898;DHT22;9581;49.484;8.556;2022-07-29T13:41:15;30.50;72.10
18898;DHT22;9581;49.484;8.556;2022-07-29T13:43:42;30.50;70.60
18898;DHT22;9581;49.484;8.556;2022-07-29T13:46:11;30.50;73.20
18898;DHT22;9581;49.484;8.556;2022-07-29T13:48:38;30.50;70.10
18898;DHT22;9581;49.484;8.556;2022-07-29T13:51:05;30.40;75.20
18898;DHT22;9581;49.484;8.556;2022-07-29T13:53:32;30.60;72.40
18898;DHT22;9581;49.484;8.556;2022-07-29T13:55:59;30.50;72.80
18898;DHT22;9581;49.484;8.556;2022-07-29T13:58:26;30.10;69.90
18898;DHT22;9581;49.484;8.556;2022-07-29T14:00:53;30.10;71.80
18898;DHT22;9581;49.484;8.556;2022-07-29T14:03:21;30.10;70.00
18898;DHT22;9581;49.484;8.556;2022-07-29T14:05:48;30.00;71.60
18898;DHT22;9581;49.484;8.556;2022-07-29T14:08:14;29.70;70.40
18898;DHT22;9581;49.484;8.556;2022-07-29T14:10:42;30.00;70.20
18898;DHT22;9581;49.484;8.556;2022-07-29T14:13:09;30.00;69.50
18898;DHT22;9581;49.484;8.556;2022-07-29T14:15:36;30.30;70.20
18898;DHT22;9581;49.484;8.556;2022-07-29T14:18:03;30.20;70.00
18898;DHT22;9581;49.484;8.556;2022-07-29T14:20:31;30.20;69.10
18898;DHT22;9581;49.484;8.556;2022-07-29T14:22:58;30.40;69.90
18898;DHT22;9581;49.484;8.556;2022-07-29T14:25:25;30.60;69.30
18898;DHT22;9581;49.484;8.556;2022-07-29T14:27:52;30.40;68.50
18898;DHT22;9581;49.484;8.556;2022-07-29T14:30:19;30.10;70.30
18898;DHT22;9581;49.484;8.556;2022-07-29T14:32:46;30.00;69.20
18898;DHT22;9581;49.484;8.556;2022-07-29T14:35:13;30.20;70.20
18898;DHT22;9581;49.484;8.556;2022-07-29T14:37:41;30.30;68.10
18898;DHT22;9581;49.484;8.556;2022-07-29T14:40:10;30.50;68.80
18898;DHT22;9581;49.484;8.556;2022-07-29T14:42:37;30.60;67.30
18898;DHT22;9581;49.484;8.556;2022-07-29T14:45:06;30.50;68.80
18898;DHT22;9581;49.484;8.556;2022-07-29T14:47:33;30.70;70.60
18898;DHT22;9581;49.484;8.556;2022-07-29T14:50:00;31.00;66.60
18898;DHT22;9581;49.484;8.556;2022-07-29T14:52:27;31.20;66.60
18898;DHT22;9581;49.484;8.556;2022-07-29T14:54:56;31.30;67.20
18898;DHT22;9581;49.484;8.556;2022-07-29T14:57:22;31.00;70.70
18898;DHT22;9581;49.484;8.556;2022-07-29T14:59:50;30.90;67.80
18898;DHT22;9581;49.484;8.556;2022-07-29T15:02:17;30.80;68.60
18898;DHT22;9581;49.484;8.556;2022-07-29T15:04:44;30.30;67.70
18898;DHT22;9581;49.484;8.556;2022-07-29T15:07:13;30.60;67.60
18898;DHT22;9581;49.484;8.556;2022-07-29T15:09:40;30.30;66.70
18898;DHT22;9581;49.484;8.556;2022-07-29T15:12:09;30.30;66.70
18898;DHT22;9581;49.484;8.556;2022-07-29T15:14:36;30.10;67.50
18898;DHT22;9581;49.484;8.556;2022-07-29T15:17:03;30.10;67.60
18898;DHT22;9581;49.484;8.556;2022-07-29T15:19:30;30.20;68.20
18898;DHT22;9581;49.484;8.556;2022-07-29T15:21:57;30.10;68.50
18898;DHT22;9581;49.484;8.556;2022-07-29T15:24:27;30.20;68.60
18898;DHT22;9581;49.484;8.556;2022-07-29T15:26:54;30.10;69.30
18898;DHT22;9581;49.484;8.556;2022-07-29T15:29:23;29.90;67.90
18898;DHT22;9581;49.484;8.556;2022-07-29T15:31:52;29.70;68.10
18898;DHT22;9581;49.484;8.556;2022-07-29T15:34:20;29.60;67.90
18898;DHT22;9581;49.484;8.556;2022-07-29T15:36:51;30.00;68.40
18898;DHT22;9581;49.484;8.556;2022-07-29T15:39:21;30.70;65.90
18898;DHT22;9581;49.484;8.556;2022-07-29T15:41:51;31.00;64.90
18898;DHT22;9581;49.484;8.556;2022-07-29T15:44:22;30.90;64.90
18898;DHT22;9581;49.484;8.556;2022-07-29T15:46:52;30.70;65.30
18898;DHT22;9581;49.484;8.556;2022-07-29T15:49:32;30.60;66.10
18898;DHT22;9581;49.484;8.556;2022-07-29T15:52:00;30.30;66.60
18898;DHT22;9581;49.484;8.556;2022-07-29T15:54:29;30.20;67.40
18898;DHT22;9581;49.484;8.556;2022-07-29T15:56:56;30.30;66.50
18898;DHT22;9581;49.484;8.556;2022-07-29T15:59:24;30.30;66.50
18898;DHT22;9581;49.484;8.556;2022-07-29T16:01:51;30.20;64.90
18898;DHT22;9581;49.484;8.556;2022-07-29T16:04:19;30.60;64.40
18898;DHT22;9581;49.484;8.556;2022-07-29T16:06:50;30.60;64.00